createdAt,value
2018-06-24T00:00:42.178Z,15.36
2018-06-24T00:03:10.505Z,15.38
2018-06-24T00:05:39.423Z,15.39
2018-06-24T00:08:07.169Z,15.39
2018-06-24T00:10:36.094Z,15.41
2018-06-24T00:13:03.849Z,15.45
2018-06-24T00:15:32.201Z,15.50
2018-06-24T00:18:01.159Z,15.55
2018-06-24T00:20:29.515Z,15.57
2018-06-24T00:22:57.876Z,15.60
2018-06-24T00:25:25.628Z,15.64
2018-06-24T00:27:54.551Z,15.65
2018-06-24T00:30:22.883Z,15.64
2018-06-24T00:32:50.647Z,15.60
2018-06-24T00:35:19.578Z,15.60
2018-06-24T00:37:47.318Z,15.60
2018-06-24T00:40:16.238Z,15.61
2018-06-24T00:42:43.987Z,15.63
2018-06-24T00:45:12.327Z,15.66
2018-06-24T00:47:41.250Z,15.70
2018-06-24T00:50:09.812Z,15.70
2018-06-24T00:52:37.931Z,15.71
2018-06-24T00:55:05.673Z,15.72
2018-06-24T00:57:34.596Z,15.70
2018-06-24T01:00:06.787Z,15.66
2018-06-24T01:02:35.141Z,15.62
2018-06-24T01:05:03.466Z,15.62
2018-06-24T01:07:31.807Z,15.55
2018-06-24T01:09:59.573Z,15.51
2018-06-24T01:12:27.905Z,15.50
2018-06-24T01:14:56.817Z,15.45
2018-06-24T01:17:25.145Z,15.42
2018-06-24T01:19:52.953Z,15.42
2018-06-24T01:22:23.874Z,15.42
2018-06-24T01:24:52.902Z,15.41
2018-06-24T01:27:23.891Z,15.40
2018-06-24T01:29:56.041Z,15.40
2018-06-24T01:32:26.439Z,15.39
2018-06-24T01:34:55.763Z,15.36
2018-06-24T01:37:30.996Z,15.30
2018-06-24T01:39:59.683Z,15.27
2018-06-24T01:42:32.038Z,15.25
2018-06-24T01:45:00.505Z,15.25
2018-06-24T01:47:29.934Z,15.24
2018-06-24T01:50:06.164Z,15.27
2018-06-24T01:52:35.226Z,15.30
2018-06-24T01:55:04.643Z,15.33
2018-06-24T01:57:33.278Z,15.36
2018-06-24T02:00:02.289Z,15.39
2018-06-24T02:02:30.479Z,15.42
2018-06-24T02:04:59.643Z,15.47
2018-06-24T02:07:45.311Z,15.50
2018-06-24T02:10:24.678Z,15.56
2018-06-24T02:13:02.246Z,15.58
2018-06-24T02:15:37.443Z,15.61
2018-06-24T02:18:17.931Z,15.61
2018-06-24T02:21:05.490Z,15.64
2018-06-24T02:29:35.107Z,15.65
2018-06-24T02:32:12.770Z,15.64
2018-06-24T02:34:52.322Z,15.67
2018-06-24T02:40:26.115Z,15.68
2018-06-24T02:43:07.552Z,15.63
2018-06-24T02:48:45.728Z,15.64
2018-06-24T02:54:37.324Z,15.45
2018-06-24T02:57:22.187Z,15.35
2018-06-24T02:59:58.051Z,15.27
2018-06-24T03:02:48.139Z,15.23
2018-06-24T03:05:19.603Z,15.19
2018-06-24T03:08:00.605Z,15.21
2018-06-24T03:10:36.884Z,15.20
2018-06-24T03:13:30.556Z,15.20
2018-06-24T03:16:13.579Z,15.20
2018-06-24T03:21:57.132Z,15.16
2018-06-24T03:24:22.755Z,15.12
2018-06-24T03:26:58.461Z,15.13
2018-06-24T03:29:29.994Z,15.14
2018-06-24T03:37:41.416Z,15.16
2018-06-24T03:40:10.129Z,15.26
2018-06-24T03:42:44.461Z,15.26
2018-06-24T03:45:21.795Z,15.28
2018-06-24T03:47:50.590Z,15.24
2018-06-24T03:50:20.083Z,15.21
2018-06-24T03:52:49.487Z,15.29
2018-06-24T03:55:17.895Z,15.38
2018-06-24T03:57:46.118Z,15.47
2018-06-24T04:00:17.421Z,15.54
2018-06-24T04:02:47.893Z,15.60
2018-06-24T04:05:15.696Z,15.64
2018-06-24T04:07:50.654Z,15.63
2018-06-24T04:10:19.301Z,15.60
2018-06-24T04:12:47.832Z,15.56
2018-06-24T04:15:17.587Z,15.62
2018-06-24T04:17:46.301Z,15.65
2018-06-24T04:20:15.215Z,15.71
2018-06-24T04:22:43.791Z,15.77
2018-06-24T04:25:12.297Z,15.83
2018-06-24T04:27:42.536Z,15.86
2018-06-24T04:30:11.682Z,15.92
2018-06-24T04:32:41.307Z,15.93
2018-06-24T04:35:09.972Z,15.96
2018-06-24T04:37:38.369Z,15.98
2018-06-24T04:40:06.786Z,15.99
2018-06-24T04:42:38.861Z,15.99
2018-06-24T04:45:08.488Z,16.02
2018-06-24T04:47:37.195Z,16.05
2018-06-24T04:50:05.519Z,16.09
2018-06-24T04:52:53.937Z,16.10
2018-06-24T04:55:38.600Z,16.14
2018-06-24T04:58:11.146Z,16.08
2018-06-24T05:00:39.494Z,15.97
2018-06-24T05:03:07.806Z,15.91
2018-06-24T05:05:35.546Z,15.84
2018-06-24T05:08:04.458Z,15.90
2018-06-24T05:10:32.784Z,16.00
2018-06-24T05:13:01.102Z,16.13
2018-06-24T05:15:28.853Z,16.24
2018-06-24T05:17:57.750Z,16.33
2018-06-24T05:20:26.075Z,16.40
2018-06-24T05:22:54.453Z,16.46
2018-06-24T05:25:22.772Z,16.49
2018-06-24T05:27:51.091Z,16.53
2018-06-24T05:30:19.426Z,16.55
2018-06-24T05:32:47.743Z,16.55
2018-06-24T05:35:16.062Z,16.54
2018-06-24T05:37:43.830Z,16.54
2018-06-24T05:40:12.136Z,16.51
2018-06-24T05:42:42.279Z,16.47
2018-06-24T05:45:09.373Z,16.46
2018-06-24T05:47:37.692Z,16.42
2018-06-24T05:50:06.007Z,16.39
2018-06-24T05:52:33.746Z,16.38
2018-06-24T05:55:02.102Z,16.33
2018-06-24T05:57:31.013Z,16.31
2018-06-24T05:59:59.321Z,16.27
2018-06-24T06:02:27.641Z,16.24
2018-06-24T06:04:55.391Z,16.22
2018-06-24T06:07:24.300Z,16.21
2018-06-24T06:09:52.617Z,16.12
2018-06-24T06:12:20.951Z,16.02
2018-06-24T06:14:49.504Z,15.89
2018-06-24T06:17:17.609Z,15.83
2018-06-24T06:19:45.930Z,15.77
2018-06-24T06:22:14.261Z,15.66
2018-06-24T06:24:42.612Z,15.58
2018-06-24T06:27:10.943Z,15.57
2018-06-24T06:29:39.347Z,15.65
2018-06-24T06:32:07.089Z,15.75
2018-06-24T06:34:35.997Z,15.77
2018-06-24T06:37:04.337Z,15.76
2018-06-24T06:39:32.135Z,15.75
2018-06-24T06:42:01.212Z,15.64
2018-06-24T06:44:28.802Z,15.57
2018-06-24T06:46:57.715Z,15.56
2018-06-24T06:49:25.457Z,15.63
2018-06-24T06:51:54.363Z,15.75
2018-06-24T06:54:22.105Z,15.86
2018-06-24T06:56:50.438Z,15.98
2018-06-24T06:59:19.330Z,16.06
2018-06-24T07:01:47.679Z,16.17
2018-06-24T07:04:15.438Z,16.24
2018-06-24T07:06:44.348Z,16.30
2018-06-24T07:09:12.650Z,16.34
2018-06-24T07:11:40.963Z,16.36
2018-06-24T07:14:09.293Z,16.41
2018-06-24T07:16:37.610Z,16.55
2018-06-24T07:19:05.966Z,16.59
2018-06-24T07:21:34.300Z,16.59
2018-06-24T07:24:02.660Z,16.58
2018-06-24T07:26:31.039Z,16.58
2018-06-24T07:28:58.785Z,16.64
2018-06-24T07:31:27.693Z,16.76
2018-06-24T07:33:55.453Z,16.87
2018-06-24T07:36:24.355Z,16.93
2018-06-24T07:38:52.100Z,16.94
2018-06-24T07:41:21.076Z,16.96
2018-06-24T07:43:48.816Z,16.95
2018-06-24T07:46:17.135Z,16.96
2018-06-24T07:48:46.056Z,17.02
2018-06-24T07:51:14.377Z,17.09
2018-06-24T07:53:42.696Z,17.14
2018-06-24T07:56:11.027Z,17.21
2018-06-24T07:58:39.357Z,17.36
2018-06-24T08:01:07.110Z,17.52
2018-06-24T08:03:36.019Z,17.64
2018-06-24T08:06:04.344Z,17.69
2018-06-24T08:08:32.668Z,17.72
2018-06-24T08:11:01.604Z,17.71
2018-06-24T08:13:29.323Z,17.71
2018-06-24T08:15:57.650Z,17.73
2018-06-24T08:18:25.390Z,17.73
2018-06-24T08:20:54.291Z,17.73
2018-06-24T08:23:22.614Z,17.72
2018-06-24T08:25:50.936Z,17.72
2018-06-24T08:28:19.387Z,17.76
2018-06-24T08:30:47.734Z,17.75
2018-06-24T08:33:16.070Z,17.79
2018-06-24T08:35:44.391Z,17.80
2018-06-24T08:38:12.709Z,17.89
2018-06-24T08:40:40.494Z,18.01
2018-06-24T08:43:09.361Z,18.14
2018-06-24T08:45:37.755Z,18.23
2018-06-24T08:48:05.501Z,18.24
2018-06-24T08:50:34.641Z,18.32
2018-06-24T08:53:02.783Z,18.38
2018-06-24T08:55:31.151Z,18.39
2018-06-24T08:57:59.465Z,18.42
2018-06-24T09:00:27.792Z,18.42
2018-06-24T09:02:55.541Z,18.45
2018-06-24T09:05:24.447Z,18.51
2018-06-24T09:07:52.781Z,18.57
2018-06-24T09:10:21.109Z,18.58
2018-06-24T09:12:49.666Z,18.61
2018-06-24T09:15:17.769Z,18.61
2018-06-24T09:17:46.245Z,18.58
2018-06-24T09:20:13.994Z,18.57
2018-06-24T09:22:42.987Z,18.60
2018-06-24T09:25:10.739Z,18.62
2018-06-24T09:27:39.107Z,18.60
2018-06-24T09:30:07.453Z,18.62
2018-06-24T09:32:36.367Z,18.64
2018-06-24T09:35:04.691Z,18.69
2018-06-24T09:37:33.018Z,18.71
2018-06-24T09:40:01.343Z,18.71
2018-06-24T09:42:29.096Z,18.71
2018-06-24T09:44:57.427Z,18.73
2018-06-24T09:47:26.340Z,18.75
2018-06-24T09:49:54.124Z,18.79
2018-06-24T09:52:23.035Z,18.82
2018-06-24T09:54:50.775Z,18.79
2018-06-24T09:57:19.700Z,18.81
2018-06-24T09:59:48.035Z,18.81
2018-06-24T10:02:16.381Z,18.83
2018-06-24T10:04:44.718Z,18.85
2018-06-24T10:07:13.088Z,18.89
2018-06-24T10:09:40.788Z,18.90
2018-06-24T10:12:09.141Z,18.91
2018-06-24T10:14:38.054Z,18.93
2018-06-24T10:17:06.390Z,18.90
2018-06-24T10:19:34.716Z,18.87
2018-06-24T10:22:02.476Z,18.88
2018-06-24T10:24:31.378Z,18.88
2018-06-24T10:26:59.710Z,18.97
2018-06-24T10:29:27.501Z,19.08
2018-06-24T10:31:56.384Z,19.18
2018-06-24T10:34:24.753Z,19.28
2018-06-24T10:36:53.994Z,19.31
2018-06-24T10:39:22.340Z,19.29
2018-06-24T10:41:50.657Z,19.20
2018-06-24T10:44:19.004Z,19.17
2018-06-24T10:46:46.752Z,19.14
2018-06-24T10:49:15.675Z,19.16
2018-06-24T10:51:44.007Z,19.20
2018-06-24T10:54:12.335Z,19.30
2018-06-24T10:56:40.111Z,19.42
2018-06-24T10:59:09.001Z,19.51
2018-06-24T11:01:37.328Z,19.55
2018-06-24T11:04:05.651Z,19.55
2018-06-24T11:06:34.013Z,19.58
2018-06-24T11:09:02.359Z,19.62
2018-06-24T11:11:30.700Z,19.69
2018-06-24T11:13:59.071Z,19.76
2018-06-24T11:16:27.398Z,19.81
2018-06-24T11:18:55.730Z,19.93
2018-06-24T11:21:24.053Z,20.02
2018-06-24T11:23:52.364Z,20.14
2018-06-24T11:26:20.106Z,20.25
2018-06-24T11:28:49.069Z,20.27
2018-06-24T11:31:17.595Z,20.29
2018-06-24T11:33:46.049Z,20.33
2018-06-24T11:36:14.332Z,20.42
2018-06-24T11:38:42.802Z,20.55
2018-06-24T11:41:11.140Z,20.69
2018-06-24T11:43:39.488Z,20.78
2018-06-24T11:46:07.889Z,20.84
2018-06-24T11:48:36.216Z,20.93
2018-06-24T11:51:04.551Z,20.99
2018-06-24T11:53:33.011Z,21.01
2018-06-24T11:56:01.339Z,20.95
2018-06-24T11:58:29.662Z,20.96
2018-06-24T12:00:57.977Z,20.97
2018-06-24T12:03:26.309Z,20.98
2018-06-24T12:05:54.046Z,20.98
2018-06-24T12:08:22.946Z,20.95
2018-06-24T12:10:50.758Z,20.93
2018-06-24T12:13:19.629Z,20.94
2018-06-24T12:15:47.946Z,20.98
2018-06-24T12:18:16.564Z,21.02
2018-06-24T12:20:44.834Z,21.02
2018-06-24T12:23:13.146Z,21.01
2018-06-24T12:25:41.480Z,21.09
2018-06-24T12:28:09.802Z,21.15
2018-06-24T12:30:37.559Z,21.15
2018-06-24T12:33:06.590Z,21.19
2018-06-24T12:35:35.096Z,21.24
2018-06-24T12:38:10.493Z,21.34
2018-06-24T12:40:38.300Z,21.44
2018-06-24T12:43:07.224Z,21.46
2018-06-24T12:45:35.671Z,21.43
2018-06-24T12:48:03.397Z,21.39
2018-06-24T12:50:32.333Z,21.28
2018-06-24T12:53:00.652Z,21.12
2018-06-24T12:55:29.483Z,21.07
2018-06-24T12:57:57.230Z,21.07
2018-06-24T13:00:26.711Z,21.03
2018-06-24T13:02:54.466Z,20.94
2018-06-24T13:05:23.004Z,20.85
2018-06-24T13:07:51.274Z,20.72
2018-06-24T13:10:19.589Z,20.61
2018-06-24T13:12:48.019Z,20.56
2018-06-24T13:15:16.345Z,20.49
2018-06-24T13:17:44.086Z,20.41
2018-06-24T13:20:12.408Z,20.31
2018-06-24T13:22:40.718Z,20.20
2018-06-24T13:25:09.620Z,20.05
2018-06-24T13:27:37.375Z,19.89
2018-06-24T13:30:06.280Z,19.80
2018-06-24T13:32:34.014Z,19.73
2018-06-24T13:35:02.344Z,19.69
2018-06-24T13:37:30.734Z,19.63
2018-06-24T13:39:59.057Z,19.59
2018-06-24T13:42:27.409Z,19.57
2018-06-24T13:44:55.713Z,19.51
2018-06-24T13:47:24.632Z,19.47
2018-06-24T13:49:52.968Z,19.45
2018-06-24T13:52:20.715Z,19.41
2018-06-24T13:54:49.614Z,19.35
2018-06-24T13:57:17.358Z,19.37
2018-06-24T13:59:46.256Z,19.32
2018-06-24T14:02:14.586Z,19.30
2018-06-24T14:04:42.902Z,19.26
2018-06-24T14:07:10.647Z,19.30
2018-06-24T14:09:39.662Z,19.37
2018-06-24T14:12:07.990Z,19.44
2018-06-24T14:14:36.310Z,19.59
2018-06-24T14:17:04.075Z,19.82
2018-06-24T14:19:32.405Z,20.05
2018-06-24T14:22:06.460Z,20.42
2018-06-24T14:24:35.373Z,20.80
2018-06-24T14:27:03.716Z,21.08
2018-06-24T14:29:32.046Z,21.27
2018-06-24T14:32:00.386Z,21.42
2018-06-24T14:34:28.707Z,21.59
2018-06-24T14:36:57.053Z,21.62
2018-06-24T14:39:25.453Z,21.59
2018-06-24T14:41:53.186Z,21.59
2018-06-24T14:44:22.092Z,21.60
2018-06-24T14:46:50.515Z,21.63
2018-06-24T14:49:18.864Z,21.72
2018-06-24T14:51:47.198Z,21.86
2018-06-24T14:54:15.522Z,21.89
2018-06-24T14:56:43.855Z,21.84
2018-06-24T14:59:12.202Z,21.89
2018-06-24T15:01:40.604Z,22.13
2018-06-24T15:04:08.886Z,22.50
2018-06-24T15:06:37.230Z,22.87
2018-06-24T15:09:05.571Z,23.03
2018-06-24T15:11:33.908Z,23.02
2018-06-24T15:14:02.267Z,23.01
2018-06-24T15:16:30.591Z,23.06
2018-06-24T15:18:58.913Z,23.08
2018-06-24T15:21:27.243Z,23.06
2018-06-24T15:23:55.576Z,23.01
2018-06-24T15:26:23.922Z,22.84
2018-06-24T15:28:52.285Z,22.75
2018-06-24T15:31:20.006Z,22.74
2018-06-24T15:33:48.921Z,22.75
2018-06-24T15:36:17.271Z,22.83
2018-06-24T15:38:45.590Z,22.92
2018-06-24T15:41:13.987Z,22.99
2018-06-24T15:43:41.730Z,22.95
2018-06-24T15:46:10.638Z,22.84
2018-06-24T15:48:38.974Z,22.74
2018-06-24T15:51:07.290Z,22.67
2018-06-24T15:53:35.048Z,22.56
2018-06-24T15:56:04.025Z,22.42
2018-06-24T15:58:31.830Z,22.30
2018-06-24T16:01:00.743Z,22.24
2018-06-24T16:03:29.067Z,22.20
2018-06-24T16:05:57.428Z,22.25
2018-06-24T16:08:25.144Z,22.34
2018-06-24T16:10:54.078Z,22.30
2018-06-24T16:13:22.614Z,22.16
2018-06-24T16:15:50.865Z,22.00
2018-06-24T16:18:18.645Z,21.90
2018-06-24T16:20:47.625Z,21.77
2018-06-24T16:23:15.891Z,21.58
2018-06-24T16:25:44.228Z,21.44
2018-06-24T16:28:12.818Z,21.26
2018-06-24T16:30:41.217Z,21.13
2018-06-24T16:33:09.487Z,21.03
2018-06-24T16:35:37.837Z,20.90
2018-06-24T16:38:06.161Z,20.79
2018-06-24T16:40:33.901Z,20.63
2018-06-24T16:43:02.873Z,20.56
2018-06-24T16:45:31.194Z,20.57
2018-06-24T16:47:59.534Z,20.55
2018-06-24T16:50:28.097Z,20.55
2018-06-24T16:52:56.236Z,20.52
2018-06-24T16:55:24.577Z,20.55
2018-06-24T16:57:52.919Z,20.60
2018-06-24T17:00:21.278Z,20.62
2018-06-24T17:02:49.683Z,20.65
2018-06-24T17:05:17.971Z,20.69
2018-06-24T17:07:46.528Z,20.67
2018-06-24T17:10:14.740Z,20.69
2018-06-24T17:12:43.112Z,20.75
2018-06-24T17:15:11.457Z,20.73
2018-06-24T17:17:39.921Z,20.70
2018-06-24T17:20:08.257Z,20.66
2018-06-24T17:22:36.913Z,20.59
2018-06-24T17:25:05.014Z,20.48
2018-06-24T17:27:33.678Z,20.35
2018-06-24T17:30:01.825Z,20.28
2018-06-24T17:32:30.223Z,20.19
2018-06-24T17:34:58.529Z,20.16
2018-06-24T17:37:26.861Z,20.17
2018-06-24T17:39:56.551Z,20.13
2018-06-24T17:42:23.515Z,20.05
2018-06-24T17:44:51.891Z,20.00
2018-06-24T17:47:20.290Z,19.95
2018-06-24T17:49:48.625Z,19.94
2018-06-24T17:52:17.008Z,19.93
2018-06-24T17:54:45.322Z,19.92
2018-06-24T17:57:13.763Z,19.93
2018-06-24T17:59:42.086Z,19.93
2018-06-24T18:02:10.408Z,19.93
2018-06-24T18:04:38.734Z,19.93
2018-06-24T18:07:07.066Z,19.90
2018-06-24T18:09:35.400Z,19.83
2018-06-24T18:12:03.739Z,19.76
2018-06-24T18:14:32.155Z,19.68
2018-06-24T18:17:00.427Z,19.63
2018-06-24T18:19:28.855Z,19.62
2018-06-24T18:21:57.539Z,19.58
2018-06-24T18:24:25.704Z,19.57
2018-06-24T18:26:54.148Z,19.54
2018-06-24T18:29:22.652Z,19.50
2018-06-24T18:31:50.475Z,19.45
2018-06-24T18:34:19.394Z,19.40
2018-06-24T18:36:47.812Z,19.33
2018-06-24T18:39:16.239Z,19.28
2018-06-24T18:41:44.608Z,19.22
2018-06-24T18:44:12.932Z,19.15
2018-06-24T18:46:41.338Z,19.09
2018-06-24T18:49:09.803Z,19.05
2018-06-24T18:51:38.150Z,19.02
2018-06-24T18:54:06.484Z,19.04
2018-06-24T18:56:35.050Z,19.04
2018-06-24T18:59:03.396Z,19.06
2018-06-24T19:01:31.718Z,19.04
2018-06-24T19:04:00.084Z,19.03
2018-06-24T19:06:28.514Z,19.02
2018-06-24T19:08:56.881Z,19.01
2018-06-24T19:11:25.805Z,18.96
2018-06-24T19:13:54.065Z,18.87
2018-06-24T19:16:22.127Z,18.75
2018-06-24T19:18:50.542Z,18.66
2018-06-24T19:21:18.938Z,18.61
2018-06-24T19:23:47.310Z,18.53
2018-06-24T19:26:15.761Z,18.49
2018-06-24T19:28:44.093Z,18.46
2018-06-24T19:31:12.447Z,18.40
2018-06-24T19:33:40.860Z,18.32
2018-06-24T19:36:09.209Z,18.27
2018-06-24T19:38:39.494Z,18.24
2018-06-24T19:41:07.828Z,18.23
2018-06-24T19:43:36.214Z,18.15
2018-06-24T19:46:03.990Z,18.08
2018-06-24T19:48:32.970Z,18.02
2018-06-24T19:51:01.326Z,17.97
2018-06-24T19:53:29.660Z,17.95
2018-06-24T19:55:57.973Z,17.90
2018-06-24T19:58:26.529Z,17.87
2018-06-24T20:00:54.754Z,17.81
2018-06-24T20:03:23.080Z,17.74
2018-06-24T20:05:51.546Z,17.72
2018-06-24T20:08:19.890Z,17.66
2018-06-24T20:10:48.238Z,17.60
2018-06-24T20:13:16.637Z,17.53
2018-06-24T20:15:45.031Z,17.51
2018-06-24T20:18:12.768Z,17.47
2018-06-24T20:20:41.671Z,17.42
2018-06-24T20:23:10.255Z,17.40
2018-06-24T20:25:38.588Z,17.35
2018-06-24T20:28:06.328Z,17.26
2018-06-24T20:30:34.691Z,17.21
2018-06-24T20:33:04.160Z,17.16
2018-06-24T20:35:32.478Z,17.14
2018-06-24T20:38:00.821Z,17.12
2018-06-24T20:40:29.263Z,17.11
2018-06-24T20:42:57.165Z,17.10
2018-06-24T20:45:25.493Z,17.09
2018-06-24T20:47:54.419Z,17.10
2018-06-24T20:50:23.157Z,17.10
2018-06-24T20:52:51.515Z,17.10
2018-06-24T20:55:19.324Z,17.07
2018-06-24T20:57:48.285Z,17.06
2018-06-24T21:00:16.722Z,17.01
2018-06-24T21:02:45.111Z,16.95
2018-06-24T21:05:12.864Z,16.94
2018-06-24T21:07:41.768Z,16.93
2018-06-24T21:10:10.159Z,16.90
2018-06-24T21:12:38.491Z,16.85
2018-06-24T21:15:06.816Z,16.84
2018-06-24T21:17:35.136Z,16.78
2018-06-24T21:20:02.879Z,16.75
2018-06-24T21:22:31.212Z,16.75
2018-06-24T21:25:00.121Z,16.79
2018-06-24T21:27:28.439Z,16.75
2018-06-24T21:29:56.766Z,16.78
2018-06-24T21:32:25.116Z,16.75
2018-06-24T21:34:52.853Z,16.72
2018-06-24T21:37:21.780Z,16.73
2018-06-24T21:39:50.089Z,16.74
2018-06-24T21:42:18.414Z,16.78
2018-06-24T21:44:46.749Z,16.76
2018-06-24T21:47:14.506Z,16.79
2018-06-24T21:49:43.406Z,16.83
2018-06-24T21:52:11.782Z,16.86
2018-06-24T21:54:39.646Z,16.86
2018-06-24T21:57:08.554Z,16.89
2018-06-24T21:59:36.943Z,16.89
2018-06-24T22:02:05.278Z,16.84
2018-06-24T22:04:33.669Z,16.79
2018-06-24T22:07:01.413Z,16.74
2018-06-24T22:09:30.313Z,16.78
2018-06-24T22:11:58.630Z,16.86
2018-06-24T22:14:27.074Z,16.89
2018-06-24T22:16:55.402Z,16.90
2018-06-24T22:19:23.720Z,16.85
2018-06-24T22:21:51.555Z,16.81
2018-06-24T22:24:19.847Z,16.77
2018-06-24T22:26:48.749Z,16.70
2018-06-24T22:29:17.076Z,16.68
2018-06-24T22:31:44.822Z,16.70
2018-06-24T22:34:13.967Z,16.72
2018-06-24T22:36:41.486Z,16.71
2018-06-24T22:39:09.823Z,16.74
2018-06-24T22:41:38.733Z,16.71
2018-06-24T22:44:07.070Z,16.69
2018-06-24T22:46:35.621Z,16.72
2018-06-24T22:49:03.729Z,16.77
2018-06-24T22:51:32.057Z,16.83
2018-06-24T22:53:59.846Z,16.89
2018-06-24T22:56:28.744Z,16.91
2018-06-24T22:58:57.072Z,16.93
2018-06-24T23:01:24.818Z,16.92
2018-06-24T23:03:53.721Z,16.93
2018-06-24T23:06:21.477Z,16.86
2018-06-24T23:08:50.432Z,16.83
2018-06-24T23:11:18.161Z,16.79
2018-06-24T23:13:47.056Z,16.81
2018-06-24T23:16:14.806Z,16.84
2018-06-24T23:18:43.729Z,16.90
2018-06-24T23:21:12.051Z,17.00
2018-06-24T23:23:40.365Z,16.96
2018-06-24T23:26:08.101Z,16.92
2018-06-24T23:28:36.476Z,16.97
2018-06-24T23:31:05.598Z,16.98
2018-06-24T23:33:33.694Z,16.90
2018-06-24T23:36:01.435Z,16.88
2018-06-24T23:38:30.330Z,16.83
2018-06-24T23:40:58.679Z,16.70
2018-06-24T23:43:27.024Z,16.61
2018-06-24T23:45:55.340Z,16.56
2018-06-24T23:48:23.661Z,16.44
2018-06-24T23:50:51.400Z,16.35
2018-06-24T23:53:19.719Z,16.34
2018-06-24T23:55:48.102Z,16.28
2018-06-24T23:58:17.017Z,16.27
